Balasiha, Russia
Current Conditions -  °F | °C
As of 9:00 PM on Saturday 25 Oct 2014 (Local Time) from UUEE Reporting Station
Clear Clear  
Wind Chill: 21°   Ceiling: Unl
Heat Index: 27°   Visibility: 6mi
Dew Point: 14°   Wind: 4mph
Humidity: 59%   Direction: 190°S
Pressure: 30.59"   Gusts: NA
Location:  55.8°N, 37.95°E
Report Text: UUEE 251800Z 19002MPS CAVOK M03/M10 Q1036 75000062 25150051NOSIG
Loading
Personal Weather Stations






























Interactive Weather Map
Tropical Storm Tracking
New forecast layout! Learn more

10-Day Weather Forecast

Advertisements
Track Severe Weather on mobile